createdAt,value
2022-08-30T00:00:09.223Z,0.00
2022-08-30T00:01:14.115Z,0.00
2022-08-30T00:02:10.580Z,0.00
2022-08-30T00:03:09.804Z,0.00
2022-08-30T00:04:09.749Z,0.00
2022-08-30T00:05:09.839Z,0.00
2022-08-30T00:06:10.000Z,0.00
2022-08-30T00:07:10.156Z,0.00
2022-08-30T00:08:10.236Z,0.00
2022-08-30T00:09:10.336Z,0.00
2022-08-30T00:10:10.446Z,0.00
2022-08-30T00:11:10.587Z,0.00
2022-08-30T00:12:10.684Z,0.00
2022-08-30T00:13:10.775Z,0.00
2022-08-30T00:14:10.924Z,0.00
2022-08-30T00:15:11.026Z,0.00
2022-08-30T00:16:11.395Z,0.00
2022-08-30T00:17:11.355Z,0.00
2022-08-30T00:18:11.405Z,0.00
2022-08-30T00:19:11.505Z,0.00
2022-08-30T00:20:11.665Z,0.00
2022-08-30T00:21:11.915Z,0.00
2022-08-30T00:22:11.904Z,0.00
2022-08-30T00:23:12.065Z,0.00
2022-08-30T00:24:12.162Z,0.00
2022-08-30T00:25:12.264Z,0.00
2022-08-30T00:26:12.503Z,0.00
2022-08-30T00:27:12.514Z,0.00
2022-08-30T00:28:12.652Z,0.00
2022-08-30T00:29:12.742Z,0.00
2022-08-30T00:30:12.903Z,0.00
2022-08-30T00:31:13.542Z,0.00
2022-08-30T00:32:13.453Z,0.00
2022-08-30T00:33:13.350Z,0.00
2022-08-30T00:34:13.513Z,0.00
2022-08-30T00:35:13.573Z,0.00
2022-08-30T00:36:13.762Z,0.00
2022-08-30T00:37:13.961Z,0.00
2022-08-30T00:38:14.012Z,0.00
2022-08-30T00:39:13.992Z,0.00
2022-08-30T00:40:14.202Z,0.00
2022-08-30T00:41:14.262Z,0.00
2022-08-30T00:42:14.579Z,0.00
2022-08-30T00:43:14.635Z,0.00
2022-08-30T00:44:14.641Z,0.00
2022-08-30T00:45:14.781Z,0.00
2022-08-30T00:46:15.001Z,0.00
2022-08-30T00:47:15.240Z,0.00
2022-08-30T00:48:15.263Z,0.00
2022-08-30T00:49:15.303Z,0.00
2022-08-30T00:50:15.414Z,0.00
2022-08-30T00:51:15.532Z,0.00
2022-08-30T00:52:15.770Z,0.00
2022-08-30T00:53:15.881Z,0.00
2022-08-30T00:54:16.029Z,0.00
2022-08-30T00:55:16.028Z,0.00
2022-08-30T00:56:16.130Z,0.00
2022-08-30T00:57:16.238Z,0.00
2022-08-30T00:58:16.369Z,0.00
2022-08-30T00:59:16.587Z,0.00
2022-08-30T01:00:16.648Z,0.00
2022-08-30T01:01:16.791Z,0.00
2022-08-30T01:02:16.918Z,0.00
2022-08-30T01:03:17.161Z,0.00
2022-08-30T01:04:17.238Z,0.00
2022-08-30T01:05:17.224Z,0.00
2022-08-30T01:06:17.376Z,0.00
2022-08-30T01:07:17.499Z,0.00
2022-08-30T01:08:17.697Z,0.00
2022-08-30T01:09:17.739Z,0.00
2022-08-30T01:10:17.847Z,0.00
2022-08-30T01:11:17.987Z,0.00
2022-08-30T01:12:18.236Z,0.00
2022-08-30T01:13:18.357Z,0.00
2022-08-30T01:14:18.305Z,0.00
2022-08-30T01:15:18.475Z,0.00
2022-08-30T01:16:18.612Z,0.00
2022-08-30T01:17:19.097Z,0.00
2022-08-30T01:18:18.813Z,0.00
2022-08-30T01:19:18.935Z,0.00
2022-08-30T01:20:19.045Z,0.00
2022-08-30T01:21:19.150Z,0.00
2022-08-30T01:22:19.485Z,0.00
2022-08-30T01:23:19.421Z,0.00
2022-08-30T01:24:19.527Z,0.00
2022-08-30T01:25:19.657Z,0.00
2022-08-30T01:26:22.132Z,0.00
2022-08-30T01:27:20.034Z,0.00
2022-08-30T01:28:20.114Z,0.00
2022-08-30T01:29:20.285Z,0.00
2022-08-30T01:30:20.294Z,0.00
2022-08-30T01:31:20.434Z,0.00
2022-08-30T01:32:21.235Z,0.00
2022-08-30T01:33:20.613Z,0.00
2022-08-30T01:34:20.782Z,0.00
2022-08-30T01:35:20.822Z,0.00
2022-08-30T01:36:20.902Z,0.00
2022-08-30T01:37:21.062Z,0.00
2022-08-30T01:38:21.174Z,0.00
2022-08-30T01:39:21.291Z,0.00
2022-08-30T01:40:21.460Z,0.00
2022-08-30T01:41:21.491Z,0.00
2022-08-30T01:42:21.675Z,0.00
2022-08-30T01:43:21.840Z,0.00
2022-08-30T01:44:21.879Z,0.00
2022-08-30T01:45:22.045Z,0.00
2022-08-30T01:46:22.379Z,0.00
2022-08-30T01:47:22.279Z,0.00
2022-08-30T01:48:22.430Z,0.00
2022-08-30T01:49:27.507Z,0.00
2022-08-30T01:50:22.620Z,0.00
2022-08-30T01:51:22.817Z,0.00
2022-08-30T01:52:22.859Z,0.00
2022-08-30T01:53:22.971Z,0.00
2022-08-30T01:54:23.072Z,0.00
2022-08-30T01:55:23.209Z,0.00
2022-08-30T01:56:23.421Z,0.00
2022-08-30T01:57:23.479Z,0.00
2022-08-30T01:58:23.659Z,0.00
2022-08-30T01:59:23.718Z,0.00
2022-08-30T02:00:23.819Z,0.00
2022-08-30T02:01:24.169Z,0.00
2022-08-30T02:02:24.188Z,0.00
2022-08-30T02:03:24.218Z,0.00
2022-08-30T02:04:24.287Z,0.00
2022-08-30T02:05:24.428Z,0.00
2022-08-30T02:06:24.715Z,0.00
2022-08-30T02:07:24.717Z,0.00
2022-08-30T02:08:24.978Z,0.00
2022-08-30T02:09:24.946Z,0.00
2022-08-30T02:10:25.038Z,0.00
2022-08-30T02:11:25.198Z,0.00
2022-08-30T02:12:25.329Z,0.00
2022-08-30T02:13:25.546Z,0.00
2022-08-30T02:14:25.538Z,0.00
2022-08-30T02:15:25.676Z,0.00
2022-08-30T02:16:25.873Z,0.00
2022-08-30T02:17:25.955Z,0.00
2022-08-30T02:18:26.149Z,0.00
2022-08-30T02:19:26.349Z,0.00
2022-08-30T02:20:26.333Z,0.00
2022-08-30T02:21:26.485Z,0.00
2022-08-30T02:22:26.585Z,0.00
2022-08-30T02:23:26.772Z,0.00
2022-08-30T02:24:26.804Z,0.00
2022-08-30T02:25:26.975Z,0.00
2022-08-30T02:26:27.078Z,0.00
2022-08-30T02:27:27.224Z,0.00
2022-08-30T02:28:27.483Z,0.00
2022-08-30T02:29:27.491Z,0.00
2022-08-30T02:30:27.613Z,0.00
2022-08-30T02:31:27.721Z,0.00
2022-08-30T02:32:27.821Z,0.00
2022-08-30T02:33:28.032Z,0.00
2022-08-30T02:34:28.082Z,0.00
2022-08-30T02:35:28.183Z,0.00
2022-08-30T02:36:28.365Z,0.00
2022-08-30T02:37:28.422Z,0.00
2022-08-30T02:38:28.512Z,0.00
2022-08-30T02:39:28.665Z,0.00
2022-08-30T02:40:28.951Z,0.00
2022-08-30T02:41:29.081Z,0.00
2022-08-30T02:42:29.031Z,0.00
2022-08-30T02:43:29.141Z,0.00
2022-08-30T02:44:29.250Z,0.00
2022-08-30T02:45:29.449Z,0.00
2022-08-30T02:46:34.448Z,0.00
2022-08-30T02:47:30.657Z,0.00
2022-08-30T02:48:29.809Z,0.00
2022-08-30T02:49:33.487Z,0.00
2022-08-30T02:50:30.000Z,0.00
2022-08-30T02:51:30.172Z,0.00
2022-08-30T02:52:30.217Z,0.00
2022-08-30T02:53:30.416Z,0.00
2022-08-30T02:54:30.468Z,0.00
2022-08-30T02:55:30.637Z,0.00
2022-08-30T02:56:30.887Z,0.00
2022-08-30T02:57:30.898Z,0.00
2022-08-30T02:58:31.000Z,0.00
2022-08-30T02:59:31.090Z,0.00
2022-08-30T03:00:31.517Z,0.00
2022-08-30T03:01:31.380Z,0.00
2022-08-30T03:02:31.468Z,0.00
2022-08-30T03:03:31.615Z,0.00
2022-08-30T03:04:31.732Z,0.00
2022-08-30T03:05:31.868Z,0.00
2022-08-30T03:06:32.030Z,0.00
2022-08-30T03:07:32.067Z,0.00
2022-08-30T03:08:32.225Z,0.00
2022-08-30T03:09:32.280Z,0.00
2022-08-30T03:10:32.444Z,0.00
2022-08-30T03:11:32.565Z,0.00
2022-08-30T03:12:32.673Z,0.00
2022-08-30T03:13:32.786Z,0.00
2022-08-30T03:14:32.894Z,0.00
2022-08-30T03:15:33.005Z,0.00
2022-08-30T03:16:33.247Z,0.00
2022-08-30T03:17:33.274Z,0.00
2022-08-30T03:18:33.377Z,0.00
2022-08-30T03:19:33.485Z,0.00
2022-08-30T03:20:33.624Z,0.00
2022-08-30T03:21:33.832Z,0.00
2022-08-30T03:22:33.907Z,0.00
2022-08-30T03:23:34.004Z,0.00
2022-08-30T03:24:34.111Z,0.00
2022-08-30T03:25:34.246Z,0.00
2022-08-30T03:26:34.476Z,0.00
2022-08-30T03:27:34.533Z,0.00
2022-08-30T03:28:34.641Z,0.00
2022-08-30T03:29:34.771Z,0.00
2022-08-30T03:30:34.894Z,0.00
2022-08-30T03:31:37.738Z,0.00
2022-08-30T03:32:36.082Z,0.00
2022-08-30T03:33:35.222Z,0.00
2022-08-30T03:34:35.361Z,0.00
2022-08-30T03:35:35.462Z,0.00
2022-08-30T03:36:35.661Z,0.00
2022-08-30T03:37:35.799Z,0.00
2022-08-30T03:38:35.790Z,0.00
2022-08-30T03:39:35.887Z,0.00
2022-08-30T03:40:36.166Z,0.00
2022-08-30T03:41:36.279Z,0.00
2022-08-30T03:42:36.450Z,0.00
2022-08-30T03:43:36.389Z,0.00
2022-08-30T03:44:36.508Z,0.00
2022-08-30T03:45:36.742Z,0.00
2022-08-30T03:46:37.595Z,0.00
2022-08-30T03:47:36.948Z,0.00
2022-08-30T03:48:37.049Z,0.00
2022-08-30T03:49:37.152Z,0.00
2022-08-30T03:50:37.281Z,0.00
2022-08-30T03:51:37.546Z,0.00
2022-08-30T03:52:37.558Z,0.00
2022-08-30T03:53:37.674Z,0.00
2022-08-30T03:54:37.827Z,0.00
2022-08-30T03:55:37.882Z,0.00
2022-08-30T03:56:38.096Z,0.00
2022-08-30T03:57:38.141Z,0.00
2022-08-30T03:58:39.280Z,0.00
2022-08-30T03:59:38.371Z,0.00
2022-08-30T04:00:38.562Z,0.00
2022-08-30T04:01:38.656Z,0.00
2022-08-30T04:02:38.767Z,0.00
2022-08-30T04:03:38.846Z,0.00
2022-08-30T04:04:39.038Z,0.00
2022-08-30T04:05:39.095Z,0.00
2022-08-30T04:06:39.203Z,0.00
2022-08-30T04:07:39.324Z,0.00
2022-08-30T04:08:39.425Z,0.00
2022-08-30T04:09:39.795Z,0.00
2022-08-30T04:10:39.636Z,0.00
2022-08-30T04:11:39.744Z,0.00
2022-08-30T04:12:39.853Z,0.00
2022-08-30T04:13:39.944Z,0.00
2022-08-30T04:14:40.124Z,0.00
2022-08-30T04:15:40.212Z,0.00
2022-08-30T04:16:40.354Z,0.00
2022-08-30T04:17:40.525Z,0.00
2022-08-30T04:18:40.513Z,0.00
2022-08-30T04:19:40.673Z,0.00
2022-08-30T04:20:40.783Z,0.00
2022-08-30T04:21:42.979Z,0.00
2022-08-30T04:22:41.051Z,0.00
2022-08-30T04:23:41.141Z,0.00
2022-08-30T04:24:41.289Z,0.00
2022-08-30T04:25:41.442Z,0.00
2022-08-30T04:26:41.553Z,0.00
2022-08-30T04:27:41.701Z,0.00
2022-08-30T04:28:41.801Z,0.00
2022-08-30T04:29:41.941Z,0.00
2022-08-30T04:30:42.101Z,0.00
2022-08-30T04:31:42.232Z,0.00
2022-08-30T04:32:42.460Z,0.00
2022-08-30T04:33:42.451Z,0.00
2022-08-30T04:34:42.550Z,0.00
2022-08-30T04:35:42.691Z,0.00
2022-08-30T04:36:42.800Z,0.00
2022-08-30T04:37:43.969Z,0.00
2022-08-30T04:38:43.058Z,0.00
2022-08-30T04:39:43.180Z,5.62
2022-08-30T04:40:43.358Z,5.62
2022-08-30T04:41:43.439Z,5.62
2022-08-30T04:42:43.666Z,5.62
2022-08-30T04:43:43.668Z,5.62
2022-08-30T04:44:43.771Z,5.62
2022-08-30T04:45:43.973Z,5.62
2022-08-30T04:46:44.499Z,5.62
2022-08-30T04:47:44.338Z,5.62
2022-08-30T04:48:44.258Z,11.25
2022-08-30T04:49:44.425Z,11.25
2022-08-30T04:50:44.528Z,11.25
2022-08-30T04:51:44.685Z,11.25
2022-08-30T04:52:44.916Z,11.25
2022-08-30T04:53:44.907Z,11.25
2022-08-30T04:54:45.047Z,16.88
2022-08-30T04:55:45.214Z,16.88
2022-08-30T04:56:45.295Z,16.88
2022-08-30T04:57:45.716Z,16.88
2022-08-30T04:58:45.486Z,22.50
2022-08-30T04:59:45.596Z,22.50
2022-08-30T05:00:45.753Z,22.50
2022-08-30T05:01:46.214Z,22.50
2022-08-30T05:02:46.182Z,28.12
2022-08-30T05:03:46.097Z,28.12
2022-08-30T05:04:46.203Z,33.75
2022-08-30T05:05:46.358Z,39.38
2022-08-30T05:06:46.486Z,39.38
2022-08-30T05:07:46.594Z,39.38
2022-08-30T05:08:48.273Z,39.38
2022-08-30T05:09:46.848Z,39.38
2022-08-30T05:10:47.003Z,39.38
2022-08-30T05:11:47.093Z,39.38
2022-08-30T05:12:47.314Z,45.00
2022-08-30T05:13:47.324Z,45.00
2022-08-30T05:14:47.452Z,50.62
2022-08-30T05:15:47.608Z,50.62
2022-08-30T05:16:47.690Z,50.62
2022-08-30T05:17:47.884Z,50.62
2022-08-30T05:18:47.911Z,50.62
2022-08-30T05:19:48.060Z,50.62
2022-08-30T05:20:48.218Z,50.62
2022-08-30T05:21:48.310Z,50.62
2022-08-30T05:22:48.535Z,56.25
2022-08-30T05:23:48.571Z,56.25
2022-08-30T05:24:48.691Z,56.25
2022-08-30T05:25:48.862Z,61.88
2022-08-30T05:26:48.940Z,61.88
2022-08-30T05:27:49.019Z,67.50
2022-08-30T05:28:49.737Z,67.50
2022-08-30T05:29:49.278Z,73.12
2022-08-30T05:30:49.410Z,73.12
2022-08-30T05:31:49.586Z,78.75
2022-08-30T05:32:49.619Z,78.75
2022-08-30T05:33:49.768Z,84.38
2022-08-30T05:34:49.861Z,95.62
2022-08-30T05:35:50.197Z,101.25
2022-08-30T05:36:50.118Z,101.25
2022-08-30T05:37:50.258Z,95.62
2022-08-30T05:38:50.359Z,95.62
2022-08-30T05:39:51.658Z,90.00
2022-08-30T05:40:50.798Z,90.00
2022-08-30T05:41:50.737Z,101.25
2022-08-30T05:42:50.877Z,106.88
2022-08-30T05:43:51.018Z,118.12
2022-08-30T05:44:51.156Z,129.38
2022-08-30T05:45:51.417Z,129.38
2022-08-30T05:46:51.357Z,140.62
2022-08-30T05:47:51.467Z,140.62
2022-08-30T05:48:51.544Z,151.88
2022-08-30T05:49:51.703Z,157.50
2022-08-30T05:50:51.885Z,157.50
2022-08-30T05:51:52.036Z,157.50
2022-08-30T05:52:52.093Z,151.88
2022-08-30T05:53:52.225Z,163.12
2022-08-30T05:54:52.343Z,174.38
2022-08-30T05:55:52.515Z,185.62
2022-08-30T05:56:52.573Z,185.62
2022-08-30T05:57:52.743Z,196.88
2022-08-30T05:58:52.844Z,196.88
2022-08-30T05:59:52.933Z,202.50
2022-08-30T06:00:53.162Z,202.50
2022-08-30T06:01:53.269Z,202.50
2022-08-30T06:02:53.382Z,202.50
2022-08-30T06:03:53.468Z,208.12
2022-08-30T06:04:53.631Z,213.75
2022-08-30T06:05:53.836Z,208.12
2022-08-30T06:06:53.833Z,202.50
2022-08-30T06:07:53.944Z,202.50
2022-08-30T06:08:54.042Z,225.00
2022-08-30T06:09:54.183Z,219.38
2022-08-30T06:10:54.433Z,208.12
2022-08-30T06:11:54.423Z,213.75
2022-08-30T06:12:54.529Z,213.75
2022-08-30T06:13:54.651Z,208.12
2022-08-30T06:14:54.761Z,196.88
2022-08-30T06:15:55.101Z,219.38
2022-08-30T06:16:55.011Z,225.00
2022-08-30T06:17:55.113Z,225.00
2022-08-30T06:18:55.220Z,236.25
2022-08-30T06:19:55.342Z,253.12
2022-08-30T06:20:55.519Z,264.38
2022-08-30T06:21:55.580Z,275.62
2022-08-30T06:22:55.694Z,275.62
2022-08-30T06:23:55.800Z,281.25
2022-08-30T06:24:58.071Z,286.88
2022-08-30T06:25:56.180Z,292.50
2022-08-30T06:26:56.219Z,275.62
2022-08-30T06:27:56.747Z,303.75
2022-08-30T06:28:56.451Z,292.50
2022-08-30T06:29:56.559Z,326.25
2022-08-30T06:30:56.897Z,337.50
2022-08-30T06:31:56.790Z,365.62
2022-08-30T06:32:56.961Z,388.12
2022-08-30T06:33:57.057Z,405.00
2022-08-30T06:34:57.199Z,455.62
2022-08-30T06:35:58.417Z,489.38
2022-08-30T06:36:57.515Z,483.75
2022-08-30T06:37:57.620Z,466.88
2022-08-30T06:38:57.718Z,466.88
2022-08-30T06:39:57.941Z,472.50
2022-08-30T06:40:58.009Z,433.12
2022-08-30T06:41:58.098Z,444.38
2022-08-30T06:42:58.199Z,455.62
2022-08-30T06:43:58.297Z,450.00
2022-08-30T06:44:58.466Z,455.62
2022-08-30T06:45:58.719Z,444.38
2022-08-30T06:46:58.707Z,427.50
2022-08-30T06:48:58.989Z,461.25
2022-08-30T06:49:59.091Z,478.12
2022-08-30T06:50:59.328Z,506.25
2022-08-30T06:51:59.516Z,517.50
2022-08-30T06:52:59.455Z,534.38
2022-08-30T06:53:59.567Z,540.00
2022-08-30T06:54:59.676Z,545.62
2022-08-30T06:55:59.851Z,556.88
2022-08-30T06:56:59.963Z,568.12
2022-08-30T06:58:00.026Z,573.75
2022-08-30T06:59:00.136Z,596.25
2022-08-30T07:00:00.234Z,624.38
2022-08-30T07:01:00.455Z,652.50
2022-08-30T07:02:00.525Z,675.00
2022-08-30T07:03:00.630Z,686.25
2022-08-30T07:04:00.715Z,680.62
2022-08-30T07:05:00.827Z,691.88
2022-08-30T07:06:00.975Z,686.25
2022-08-30T07:07:01.147Z,680.62
2022-08-30T07:08:01.206Z,675.00
2022-08-30T07:09:01.829Z,658.12
2022-08-30T07:10:01.435Z,646.88
2022-08-30T07:11:01.647Z,635.62
2022-08-30T07:12:01.650Z,624.38
2022-08-30T07:13:01.765Z,624.38
2022-08-30T07:14:01.875Z,646.88
2022-08-30T07:15:01.994Z,658.12
2022-08-30T07:16:02.235Z,596.25
2022-08-30T07:17:02.344Z,579.38
2022-08-30T07:18:02.358Z,528.75
2022-08-30T07:19:02.446Z,523.12
2022-08-30T07:20:02.608Z,450.00
2022-08-30T07:21:02.845Z,472.50
2022-08-30T07:22:02.835Z,483.75
2022-08-30T07:23:02.944Z,489.38
2022-08-30T07:24:03.044Z,506.25
2022-08-30T07:25:03.184Z,478.12
2022-08-30T07:26:03.452Z,478.12
2022-08-30T07:27:03.472Z,478.12
2022-08-30T07:28:03.578Z,478.12
2022-08-30T07:29:03.684Z,478.12
2022-08-30T07:30:03.784Z,483.75
2022-08-30T07:31:04.140Z,444.38
2022-08-30T07:32:04.016Z,416.25
2022-08-30T07:33:04.124Z,455.62
2022-08-30T07:34:04.213Z,399.38
2022-08-30T07:35:04.364Z,421.88
2022-08-30T07:36:04.565Z,427.50
2022-08-30T07:37:04.630Z,405.00
2022-08-30T07:38:04.744Z,455.62
2022-08-30T07:39:04.875Z,483.75
2022-08-30T07:40:04.982Z,478.12
2022-08-30T07:41:05.253Z,511.88
2022-08-30T07:42:05.312Z,517.50
2022-08-30T07:43:05.361Z,551.25
2022-08-30T07:44:05.462Z,551.25
2022-08-30T07:45:05.572Z,590.62
2022-08-30T07:46:05.879Z,601.88
2022-08-30T07:47:05.831Z,607.50
2022-08-30T07:48:05.962Z,618.75
2022-08-30T07:49:11.092Z,472.50
2022-08-30T07:50:07.192Z,478.12
2022-08-30T07:51:06.422Z,579.38
2022-08-30T07:52:06.413Z,630.00
2022-08-30T07:53:09.253Z,630.00
2022-08-30T07:54:06.668Z,613.12
2022-08-30T07:55:06.827Z,523.12
2022-08-30T07:56:06.990Z,495.00
2022-08-30T07:57:07.140Z,472.50
2022-08-30T07:58:07.256Z,607.50
2022-08-30T07:59:07.343Z,697.50
2022-08-30T08:00:07.522Z,624.38
2022-08-30T08:01:07.692Z,579.38
2022-08-30T08:02:07.791Z,585.00
2022-08-30T08:03:08.143Z,613.12
2022-08-30T08:04:07.962Z,708.75
2022-08-30T08:05:08.073Z,815.62
2022-08-30T08:06:08.337Z,680.62
2022-08-30T08:07:08.301Z,787.50
2022-08-30T08:08:08.549Z,832.50
2022-08-30T08:09:08.570Z,804.38
2022-08-30T08:10:08.741Z,776.25
2022-08-30T08:11:08.870Z,798.75
2022-08-30T08:12:09.020Z,826.88
2022-08-30T08:13:09.129Z,984.38
2022-08-30T08:14:09.281Z,1046.25
2022-08-30T08:15:09.351Z,1068.75
2022-08-30T08:16:09.603Z,1057.50
2022-08-30T08:17:09.590Z,1068.75
2022-08-30T08:18:09.800Z,990.00
2022-08-30T08:19:09.833Z,703.12
2022-08-30T08:20:09.929Z,821.25
2022-08-30T08:21:10.149Z,1175.62
2022-08-30T08:22:20.572Z,1153.12
2022-08-30T08:23:11.328Z,1063.12
2022-08-30T08:24:10.408Z,1518.75
2022-08-30T08:25:10.550Z,1653.75
2022-08-30T08:26:10.859Z,1805.62
2022-08-30T08:27:10.870Z,1288.12
2022-08-30T08:28:10.979Z,1074.38
2022-08-30T08:29:11.078Z,2115.00
2022-08-30T08:30:11.169Z,1518.75
2022-08-30T08:31:11.372Z,1901.25
2022-08-30T08:32:11.391Z,2711.25
2022-08-30T08:33:11.552Z,2953.12
2022-08-30T08:34:11.680Z,2525.62
2022-08-30T08:35:11.751Z,3470.62
2022-08-30T08:36:12.042Z,3661.88
2022-08-30T08:37:12.177Z,3690.00
2022-08-30T08:38:12.326Z,3667.50
2022-08-30T08:39:12.283Z,3695.62
2022-08-30T08:40:12.466Z,3723.75
2022-08-30T08:41:12.638Z,3948.75
2022-08-30T08:42:12.575Z,4078.12
2022-08-30T08:43:12.748Z,4263.75
2022-08-30T08:44:12.846Z,4483.12
2022-08-30T08:45:12.988Z,4989.38
2022-08-30T08:46:13.245Z,5315.62
2022-08-30T08:47:13.701Z,5529.38
2022-08-30T08:48:13.452Z,5754.38
2022-08-30T08:49:13.468Z,6193.12
2022-08-30T08:50:17.436Z,6024.38
2022-08-30T08:51:15.005Z,5911.88
2022-08-30T08:52:13.838Z,5911.88
2022-08-30T08:53:20.519Z,6429.38
2022-08-30T08:54:15.081Z,6631.88
2022-08-30T08:55:14.178Z,6615.00
2022-08-30T08:56:14.289Z,7081.88
2022-08-30T08:57:16.591Z,7425.00
2022-08-30T08:58:14.517Z,7065.00
2022-08-30T08:59:14.609Z,7245.00
2022-08-30T09:00:14.769Z,7183.12
2022-08-30T09:01:15.056Z,6575.62
2022-08-30T09:02:15.008Z,6440.62
2022-08-30T09:03:15.116Z,6322.50
2022-08-30T09:04:15.227Z,6086.25
2022-08-30T09:05:15.382Z,5917.50
2022-08-30T09:06:15.487Z,5287.50
2022-08-30T09:07:15.597Z,5113.12
2022-08-30T09:08:15.696Z,5304.38
2022-08-30T09:09:15.796Z,4938.75
2022-08-30T09:10:18.355Z,4325.62
2022-08-30T09:11:17.154Z,4348.12
2022-08-30T09:12:16.197Z,4494.38
2022-08-30T09:13:18.252Z,4207.50
2022-08-30T09:14:16.427Z,4156.88
2022-08-30T09:15:16.599Z,4055.62
2022-08-30T09:16:22.500Z,3971.25
2022-08-30T09:17:17.896Z,3729.38
2022-08-30T09:18:19.642Z,3875.62
2022-08-30T09:19:17.077Z,3796.88
2022-08-30T09:20:17.215Z,4061.25
2022-08-30T09:21:17.376Z,4111.88
2022-08-30T09:22:17.516Z,3886.88
2022-08-30T09:23:17.825Z,3757.50
2022-08-30T09:24:18.843Z,3740.62
2022-08-30T09:25:18.895Z,3571.88
2022-08-30T09:26:18.045Z,3504.38
2022-08-30T09:27:18.202Z,3515.62
2022-08-30T09:28:19.355Z,3363.75
2022-08-30T09:29:18.385Z,3183.75
2022-08-30T09:30:18.546Z,3155.62
2022-08-30T09:31:18.671Z,3285.00
2022-08-30T09:32:25.363Z,3397.50
2022-08-30T09:33:19.975Z,3611.25
2022-08-30T09:34:19.023Z,3442.50
2022-08-30T09:35:19.135Z,3330.00
2022-08-30T09:36:19.224Z,3273.75
2022-08-30T09:37:19.325Z,3161.25
2022-08-30T09:38:19.655Z,2902.50
2022-08-30T09:39:19.593Z,2790.00
2022-08-30T09:40:19.748Z,2711.25
2022-08-30T09:41:19.842Z,2649.38
2022-08-30T09:42:19.935Z,2851.88
2022-08-30T09:43:20.161Z,3127.50
2022-08-30T09:44:20.284Z,3031.88
2022-08-30T09:45:20.344Z,3088.12
2022-08-30T09:46:20.476Z,3414.38
2022-08-30T09:47:24.033Z,3290.62
2022-08-30T09:48:20.906Z,3307.50
2022-08-30T09:49:20.862Z,3195.00
2022-08-30T09:50:20.972Z,2981.25
2022-08-30T09:51:21.078Z,2806.88
2022-08-30T09:52:21.222Z,2480.62
2022-08-30T09:53:23.378Z,2520.00
2022-08-30T09:54:21.513Z,2587.50
2022-08-30T09:55:21.592Z,2396.25
2022-08-30T09:56:21.742Z,2368.12
2022-08-30T09:57:21.890Z,2233.12
2022-08-30T09:58:26.770Z,2542.50
2022-08-30T09:59:23.144Z,2750.62
2022-08-30T10:00:22.273Z,1434.38
2022-08-30T10:01:22.874Z,2795.62
2022-08-30T10:02:22.565Z,3054.38
2022-08-30T10:03:35.281Z,2947.50
2022-08-30T10:04:26.278Z,2818.12
2022-08-30T10:05:22.910Z,2643.75
2022-08-30T10:06:23.043Z,2745.00
2022-08-30T10:07:23.140Z,1631.25
2022-08-30T10:08:25.507Z,1456.88
2022-08-30T10:09:23.385Z,1299.38
2022-08-30T10:10:23.480Z,1085.62
2022-08-30T10:11:23.641Z,2413.12
2022-08-30T10:12:23.750Z,2497.50
2022-08-30T10:13:23.862Z,1485.00
2022-08-30T10:14:24.117Z,1451.25
2022-08-30T10:15:24.100Z,2711.25
2022-08-30T10:16:24.252Z,2756.25
2022-08-30T10:17:27.025Z,2818.12
2022-08-30T10:18:24.521Z,2930.62
2022-08-30T10:19:24.811Z,2992.50
2022-08-30T10:20:24.765Z,2851.88
2022-08-30T10:21:24.990Z,2784.38
2022-08-30T10:22:25.038Z,2261.25
2022-08-30T10:23:25.204Z,2643.75
2022-08-30T10:24:25.822Z,2739.38
2022-08-30T10:25:25.479Z,2790.00
2022-08-30T10:26:25.597Z,2801.25
2022-08-30T10:27:25.700Z,2531.25
2022-08-30T10:28:25.859Z,2610.00
2022-08-30T10:29:26.049Z,2660.62
2022-08-30T10:30:26.171Z,2660.62
2022-08-30T10:31:26.260Z,2626.88
2022-08-30T10:32:26.381Z,2666.25
2022-08-30T10:33:26.507Z,2553.75
2022-08-30T10:34:27.667Z,2345.62
2022-08-30T10:35:26.748Z,2683.12
2022-08-30T10:36:26.869Z,2671.88
2022-08-30T10:37:26.968Z,2581.88
2022-08-30T10:38:27.137Z,2261.25
2022-08-30T10:39:27.237Z,2587.50
2022-08-30T10:40:27.605Z,2570.62
2022-08-30T10:41:27.507Z,2385.00
2022-08-30T10:42:27.655Z,2193.75
2022-08-30T10:43:27.808Z,2655.00
2022-08-30T10:44:27.937Z,2700.00
2022-08-30T10:45:28.159Z,2925.00
2022-08-30T10:46:28.187Z,2891.25
2022-08-30T10:47:28.396Z,3065.62
2022-08-30T10:48:28.425Z,3082.50
2022-08-30T10:49:28.535Z,2700.00
2022-08-30T10:50:28.764Z,2368.12
2022-08-30T10:51:28.820Z,2266.88
2022-08-30T10:52:28.914Z,2351.25
2022-08-30T10:53:29.087Z,2559.38
2022-08-30T10:54:29.186Z,2761.88
2022-08-30T10:55:29.337Z,3071.25
2022-08-30T10:56:29.409Z,3313.12
2022-08-30T10:57:29.506Z,3543.75
2022-08-30T10:58:29.666Z,3369.38
2022-08-30T10:59:29.798Z,3605.62
2022-08-30T11:00:29.938Z,3352.50
2022-08-30T11:01:30.164Z,3560.62
2022-08-30T11:02:30.177Z,3555.00
2022-08-30T11:03:30.297Z,3701.25
2022-08-30T11:04:30.414Z,3735.00
2022-08-30T11:05:30.575Z,3802.50
2022-08-30T11:06:30.647Z,3853.12
2022-08-30T11:07:30.714Z,3571.88
2022-08-30T11:08:30.845Z,3161.25
2022-08-30T11:09:30.971Z,2863.12
2022-08-30T11:10:31.066Z,2801.25
2022-08-30T11:11:31.205Z,2182.50
2022-08-30T11:12:31.315Z,2761.88
2022-08-30T11:13:31.415Z,2643.75
2022-08-30T11:14:31.514Z,2407.50
2022-08-30T11:15:31.913Z,2401.88
2022-08-30T11:16:31.803Z,2553.75
2022-08-30T11:17:31.964Z,2565.00
2022-08-30T11:18:32.070Z,2733.75
2022-08-30T11:19:32.455Z,2711.25
2022-08-30T11:20:34.638Z,2520.00
2022-08-30T11:21:32.431Z,2621.25
2022-08-30T11:22:36.825Z,2126.25
2022-08-30T11:23:33.673Z,2463.75
2022-08-30T11:24:32.772Z,2559.38
2022-08-30T11:25:33.003Z,2497.50
2022-08-30T11:26:33.055Z,1923.75
2022-08-30T11:27:33.103Z,2131.88
2022-08-30T11:28:33.223Z,2266.88
2022-08-30T11:29:33.350Z,1957.50
2022-08-30T11:30:33.681Z,1687.50
2022-08-30T11:31:33.592Z,2047.50
2022-08-30T11:32:33.712Z,2148.75
2022-08-30T11:33:33.869Z,1698.75
2022-08-30T11:34:33.981Z,1833.75
2022-08-30T11:35:34.133Z,1845.00
2022-08-30T11:36:37.246Z,1839.38
2022-08-30T11:37:34.361Z,2205.00
2022-08-30T11:38:34.469Z,2221.88
2022-08-30T11:39:34.574Z,2216.25
2022-08-30T11:40:34.867Z,2244.38
2022-08-30T11:41:38.278Z,1693.12
2022-08-30T11:42:35.980Z,1710.00
2022-08-30T11:43:35.113Z,2289.38
2022-08-30T11:44:35.221Z,2058.75
2022-08-30T11:45:35.563Z,1051.88
2022-08-30T11:46:35.481Z,1023.75
2022-08-30T11:47:35.610Z,978.75
2022-08-30T11:48:35.730Z,990.00
2022-08-30T11:49:36.361Z,1029.38
2022-08-30T11:50:36.000Z,1096.88
2022-08-30T11:51:36.100Z,1513.12
2022-08-30T11:52:36.168Z,1327.50
2022-08-30T11:53:36.288Z,1428.75
2022-08-30T11:54:36.408Z,1473.75
2022-08-30T11:55:36.580Z,1282.50
2022-08-30T11:56:36.620Z,1338.75
2022-08-30T11:57:36.789Z,1828.12
2022-08-30T11:58:36.910Z,2047.50
2022-08-30T11:59:37.002Z,1951.88
2022-08-30T12:00:37.285Z,2053.12
2022-08-30T12:01:50.806Z,1895.62
2022-08-30T12:02:38.605Z,1726.88
2022-08-30T12:03:37.658Z,2216.25
2022-08-30T12:04:37.732Z,2390.62
2022-08-30T12:05:37.990Z,1659.38
2022-08-30T12:06:37.926Z,1546.88
2022-08-30T12:07:38.040Z,1642.50
2022-08-30T12:08:38.189Z,1766.25
2022-08-30T12:09:38.309Z,1738.12
2022-08-30T12:10:38.533Z,1923.75
2022-08-30T12:11:38.518Z,1839.38
2022-08-30T12:12:38.650Z,1929.38
2022-08-30T12:13:38.818Z,1845.00
2022-08-30T12:14:40.813Z,1518.75
2022-08-30T12:15:39.158Z,1665.00
2022-08-30T12:16:39.400Z,1603.12
2022-08-30T12:17:39.359Z,1710.00
2022-08-30T12:18:39.471Z,2626.88
2022-08-30T12:19:41.399Z,2632.50
2022-08-30T12:20:39.844Z,2160.00
2022-08-30T12:21:44.733Z,1440.00
2022-08-30T12:22:41.013Z,1434.38
2022-08-30T12:23:44.583Z,1445.62
2022-08-30T12:24:40.231Z,1282.50
2022-08-30T12:25:40.558Z,1170.00
2022-08-30T12:26:41.262Z,1170.00
2022-08-30T12:27:40.638Z,1051.88
2022-08-30T12:28:42.184Z,956.25
2022-08-30T12:29:40.858Z,978.75
2022-08-30T12:30:41.019Z,984.38
2022-08-30T12:31:41.216Z,928.12
2022-08-30T12:32:41.258Z,911.25
2022-08-30T12:33:41.715Z,922.50
2022-08-30T12:34:41.537Z,956.25
2022-08-30T12:35:41.647Z,911.25
2022-08-30T12:36:41.780Z,860.62
2022-08-30T12:37:42.319Z,883.12
2022-08-30T12:38:42.100Z,905.62
2022-08-30T12:39:42.098Z,1006.88
2022-08-30T12:40:42.265Z,1023.75
2022-08-30T12:41:43.823Z,888.75
2022-08-30T12:42:42.646Z,905.62